Time;durP1;ratioP1;P1;durP2;ratioP2;P2;SDS_P1;SDS_P2;PMS_P1;PMS_P2;Temp;Humidity;BMP_temperature;BMP_pressure;BME280_temperature;BME280_humidity;BME280_pressure;Samples;Min_cycle;Max_cycle;Signal;HPM_P1;HPM_P2
2022/09/17 00:01:16;;;;;;;5.57;1.35;;;13.10;78.50;;;;;;5073755;28;20036;-69
2022/09/17 00:03:42;;;;;;;5.70;1.10;;;13.10;78.50;;;;;;5074796;28;20025;-68
2022/09/17 00:06:10;;;;;;;7.88;1.30;;;13.10;78.60;;;;;;5074680;28;20029;-69
2022/09/17 00:08:38;;;;;;;5.07;1.25;;;13.10;78.70;;;;;;5074539;28;20049;-69
2022/09/17 00:11:14;;;;;;;5.13;1.75;;;13.10;78.70;;;;;;5074581;28;20025;-69
2022/09/17 00:13:41;;;;;;;8.68;1.48;;;13.10;78.90;;;;;;5074688;28;20025;-68
2022/09/17 00:16:07;;;;;;;8.05;1.20;;;13.00;78.80;;;;;;5074477;28;20032;-69
2022/09/17 00:18:35;;;;;;;7.78;1.40;;;13.10;78.90;;;;;;5074474;28;20025;-69
2022/09/17 00:21:02;;;;;;;6.32;1.35;;;13.10;78.90;;;;;;5074277;28;20045;-69
2022/09/17 00:23:28;;;;;;;5.57;1.05;;;13.00;78.90;;;;;;5073315;28;20021;-68
2022/09/17 00:25:53;;;;;;;7.20;1.40;;;13.10;78.80;;;;;;5074304;28;20035;-69
2022/09/17 00:28:19;;;;;;;9.98;1.60;;;13.10;78.70;;;;;;5074212;28;20108;-68
2022/09/17 00:30:45;;;;;;;8.82;0.90;;;13.10;78.60;;;;;;5074161;28;20108;-69
2022/09/17 00:33:13;;;;;;;4.80;1.20;;;13.10;78.60;;;;;;5074153;28;20029;-69
2022/09/17 00:35:39;;;;;;;5.40;0.90;;;13.10;78.60;;;;;;5074256;28;20025;-69
2022/09/17 00:38:05;;;;;;;7.97;1.08;;;13.10;78.60;;;;;;5074045;28;20041;-68
2022/09/17 00:40:30;;;;;;;7.20;1.25;;;13.10;78.50;;;;;;5074035;28;20419;-68
2022/09/17 00:42:56;;;;;;;4.63;1.02;;;13.10;78.60;;;;;;5073912;28;20036;-68
2022/09/17 00:45:23;;;;;;;6.55;0.98;;;13.10;78.60;;;;;;5073902;28;20029;-69
2022/09/17 00:48:00;;;;;;;3.92;0.77;;;13.10;78.60;;;;;;5073890;28;20025;-69
2022/09/17 00:50:28;;;;;;;6.55;1.13;;;13.10;78.80;;;;;;5073910;28;20028;-68
2022/09/17 00:53:00;;;;;;;11.07;1.70;;;13.10;78.80;;;;;;5073661;28;20029;-68
2022/09/17 00:55:34;;;;;;;8.73;1.70;;;13.10;78.80;;;;;;5073788;28;20021;-68
2022/09/17 00:58:03;;;;;;;5.35;1.17;;;13.10;78.90;;;;;;5072743;28;20025;-69
2022/09/17 01:00:29;;;;;;;3.65;1.00;;;13.10;78.80;;;;;;5072718;28;20376;-69
2022/09/17 01:02:57;;;;;;;3.10;1.05;;;13.00;78.90;;;;;;5073423;28;20021;-68
2022/09/17 01:06:00;;;;;;;3.78;1.17;;;13.00;78.90;;;;;;5073600;28;20013;-69
2022/09/17 01:08:36;;;;;;;4.75;1.27;;;13.00;78.70;;;;;;5062352;28;20048;-68
2022/09/17 01:11:29;;;;;;;1.98;0.85;;;13.00;78.90;;;;;;5073534;28;20513;-68
2022/09/17 01:14:10;;;;;;;10.20;1.75;;;13.00;78.90;;;;;;5072589;28;20036;-68
2022/09/17 01:17:14;;;;;;;6.88;1.02;;;13.00;79.00;;;;;;5073414;28;20032;-68
2022/09/17 01:20:09;;;;;;;4.95;0.70;;;13.00;79.00;;;;;;5073385;28;20423;-68
2022/09/17 01:23:13;;;;;;;6.88;1.17;;;12.90;79.20;;;;;;5073445;28;20039;-68
2022/09/17 01:25:54;;;;;;;5.32;1.05;;;13.00;79.10;;;;;;5072353;28;20052;-68
2022/09/17 01:28:46;;;;;;;6.97;1.10;;;12.90;79.30;;;;;;5073176;28;20029;-68
2022/09/17 01:31:23;;;;;;;;;;;12.90;79.20;;;;;;5063709;28;20059;-68
2022/09/17 01:34:28;;;;;;;9.55;1.60;;;13.00;79.00;;;;;;5072253;28;19939;-68
2022/09/17 01:37:01;;;;;;;6.60;1.30;;;12.90;79.10;;;;;;5036753;28;20057;-68
2022/09/17 01:39:26;;;;;;;;;;;12.90;79.30;;;;;;5073573;28;20040;-68
2022/09/17 01:42:02;;;;;;;9.30;1.48;;;12.90;79.20;;;;;;5073213;28;19915;-68
2022/09/17 01:44:35;;;;;;;5.25;1.02;;;12.90;79.20;;;;;;5073164;28;20017;-68
2022/09/17 01:47:22;;;;;;;3.78;0.90;;;12.90;79.30;;;;;;5072091;28;20032;-68
2022/09/17 01:49:52;;;;;;;2.40;0.73;;;12.80;79.20;;;;;;5072043;28;20024;-68
2022/09/17 01:52:19;;;;;;;7.57;1.05;;;12.80;79.20;;;;;;5073273;28;20039;-68
2022/09/17 01:54:48;;;;;;;6.28;0.88;;;12.80;79.10;;;;;;5072181;28;20025;-68
2022/09/17 01:57:45;;;;;;;5.20;0.90;;;12.80;79.10;;;;;;5072996;28;20082;-68
2022/09/17 02:00:14;;;;;;;6.93;0.98;;;12.80;79.20;;;;;;5066389;28;20032;-68
2022/09/17 02:03:04;;;;;;;6.45;1.38;;;12.80;79.00;;;;;;5071865;28;20032;-68
2022/09/17 02:05:40;;;;;;;4.93;1.02;;;12.80;79.00;;;;;;5072969;28;20064;-68
2022/09/17 02:08:13;;;;;;;8.27;1.00;;;12.80;79.00;;;;;;5072757;28;20041;-69
2022/09/17 02:10:46;;;;;;;7.35;1.10;;;12.80;79.00;;;;;;5072952;28;20081;-68
2022/09/17 02:13:45;;;;;;;6.43;0.85;;;12.80;78.90;;;;;;5071871;28;20111;-69
2022/09/17 02:16:42;;;;;;;4.15;0.70;;;12.80;78.80;;;;;;5075907;28;20049;-69
2022/09/17 02:19:25;;;;;;;10.00;1.50;;;12.70;78.70;;;;;;5076449;28;20092;-69
2022/09/17 02:22:09;;;;;;;4.05;0.95;;;12.70;78.80;;;;;;5076572;28;20025;-68
2022/09/17 02:24:52;;;;;;;4.55;1.02;;;12.70;78.80;;;;;;5075584;28;20032;-69
2022/09/17 02:27:36;;;;;;;4.13;1.00;;;12.60;79.70;;;;;;5076582;28;20021;-69
2022/09/17 02:30:03;;;;;;;4.15;1.00;;;12.70;78.90;;;;;;5076564;28;20017;-69
2022/09/17 02:32:28;;;;;;;4.82;0.90;;;12.70;79.10;;;;;;5076585;28;20028;-69
2022/09/17 02:34:54;;;;;;;2.22;0.75;;;12.70;78.90;;;;;;5076397;28;20089;-68
2022/09/17 02:37:20;;;;;;;5.03;0.98;;;12.70;78.90;;;;;;5076499;28;20040;-68
2022/09/17 02:39:46;;;;;;;4.55;1.25;;;12.70;79.00;;;;;;5076491;28;20033;-69
2022/09/17 02:42:26;;;;;;;11.77;1.38;;;12.70;79.00;;;;;;5076192;28;20025;-69
2022/09/17 02:45:19;;;;;;;5.72;0.93;;;12.60;79.10;;;;;;5076426;28;20138;-69
2022/09/17 02:48:15;;;;;;;9.57;1.52;;;12.60;79.20;;;;;;5076236;28;20025;-69
2022/09/17 02:51:07;;;;;;;6.65;1.20;;;12.60;79.20;;;;;;5076161;28;20047;-69
2022/09/17 02:53:53;;;;;;;6.75;1.50;;;12.60;79.20;;;;;;5076267;28;20013;-69
2022/09/17 02:56:45;;;;;;;3.97;1.48;;;12.60;79.40;;;;;;5076205;28;20024;-69
2022/09/17 02:59:46;;;;;;;7.43;1.10;;;12.50;79.60;;;;;;5076015;28;20032;-69
2022/09/17 03:02:19;;;;;;;5.47;1.55;;;12.60;79.60;;;;;;5076004;28;20020;-69
2022/09/17 03:04:48;;;;;;;6.82;1.10;;;12.60;79.40;;;;;;5075919;28;20033;-69
2022/09/17 03:07:15;;;;;;;10.00;1.10;;;12.60;79.60;;;;;;5075809;28;20051;-68
2022/09/17 03:09:42;;;;;;;4.07;0.47;;;12.60;79.50;;;;;;5074378;28;20080;-69
2022/09/17 03:12:09;;;;;;;7.05;1.08;;;12.70;79.40;;;;;;5075703;28;20036;-69
2022/09/17 03:14:35;;;;;;;5.43;0.80;;;12.60;79.30;;;;;;5075714;28;20039;-68
2022/09/17 03:17:01;;;;;;;4.40;1.00;;;12.70;79.30;;;;;;5075619;28;20093;-68
2022/09/17 03:19:27;;;;;;;5.05;1.10;;;12.60;79.10;;;;;;5075566;28;20029;-68
2022/09/17 03:21:53;;;;;;;4.13;1.00;;;12.70;79.30;;;;;;5075463;28;20037;-69
2022/09/17 03:24:18;;;;;;;9.20;1.58;;;12.60;79.30;;;;;;5074570;28;20037;-68
2022/09/17 03:26:46;;;;;;;6.55;0.70;;;12.60;79.30;;;;;;5074112;28;20025;-69
2022/09/17 03:29:12;;;;;;;10.80;1.48;;;12.60;80.30;;;;;;5075460;28;20021;-68
2022/09/17 03:31:38;;;;;;;3.10;0.98;;;12.60;79.60;;;;;;5075355;28;20089;-68
2022/09/17 03:34:03;;;;;;;6.25;0.93;;;12.70;79.30;;;;;;5075447;28;20025;-69
2022/09/17 03:36:29;;;;;;;8.35;1.10;;;12.60;79.30;;;;;;5074234;28;20044;-69
2022/09/17 03:38:56;;;;;;;9.93;1.30;;;12.60;79.10;;;;;;5075234;28;20029;-69
2022/09/17 03:41:21;;;;;;;5.25;0.90;;;12.70;78.80;;;;;;5075127;28;20028;-68
2022/09/17 03:43:47;;;;;;;5.80;1.27;;;12.70;78.80;;;;;;5075157;28;20075;-69
2022/09/17 03:46:12;;;;;;;6.40;1.23;;;12.60;78.90;;;;;;5075091;28;20037;-69
2022/09/17 03:48:38;;;;;;;6.10;0.80;;;12.60;79.00;;;;;;5075038;28;20056;-68
2022/09/17 03:51:05;;;;;;;8.15;1.20;;;12.60;79.00;;;;;;5075138;28;20074;-69
2022/09/17 03:53:31;;;;;;;4.50;0.98;;;12.60;79.00;;;;;;5073982;28;20036;-69
2022/09/17 03:55:59;;;;;;;3.50;0.93;;;12.60;79.00;;;;;;5074899;28;20104;-69
2022/09/17 03:58:25;;;;;;;8.55;1.02;;;12.70;78.90;;;;;;5074890;28;20029;-69
2022/09/17 04:00:52;;;;;;;5.95;0.90;;;12.70;78.80;;;;;;5074727;28;20052;-69
2022/09/17 04:03:18;;;;;;;5.80;0.90;;;12.80;78.50;;;;;;5074765;28;20021;-69
2022/09/17 04:05:44;;;;;;;6.63;0.75;;;12.80;78.40;;;;;;5074704;28;20114;-69
2022/09/17 04:08:09;;;;;;;5.15;1.33;;;12.80;78.30;;;;;;5074492;28;20049;-69
2022/09/17 04:10:35;;;;;;;4.90;0.70;;;12.80;78.30;;;;;;5074645;28;20047;-69
2022/09/17 04:13:01;;;;;;;4.72;0.85;;;12.70;78.40;;;;;;5074577;28;20083;-68
2022/09/17 04:15:26;;;;;;;7.20;1.20;;;12.70;78.30;;;;;;5074535;28;20092;-69
2022/09/17 04:17:56;;;;;;;5.43;1.05;;;12.70;78.30;;;;;;5074484;28;20507;-68
2022/09/17 04:20:23;;;;;;;4.70;0.77;;;12.80;78.10;;;;;;5074458;28;20032;-68
2022/09/17 04:22:49;;;;;;;1.30;0.68;;;12.80;78.00;;;;;;5056669;28;20051;-69
2022/09/17 04:25:14;;;;;;;6.07;0.80;;;12.80;78.00;;;;;;5073534;28;20029;-69
2022/09/17 04:27:40;;;;;;;7.50;0.82;;;12.80;77.80;;;;;;5056737;28;20036;-68
2022/09/17 04:30:06;;;;;;;5.70;1.10;;;12.70;77.80;;;;;;5073178;28;20056;-68
2022/09/17 04:32:32;;;;;;;6.72;0.60;;;12.70;77.80;;;;;;5073337;28;20044;-69
2022/09/17 04:34:58;;;;;;;6.80;0.75;;;12.70;77.60;;;;;;5074295;28;20032;-68
2022/09/17 04:37:24;;;;;;;4.25;0.60;;;12.70;77.70;;;;;;5073707;28;20029;-68
2022/09/17 04:39:50;;;;;;;4.85;0.73;;;12.70;77.40;;;;;;5074061;28;20035;-68
2022/09/17 04:42:16;;;;;;;6.15;0.88;;;12.70;77.50;;;;;;5073928;28;20033;-69
2022/09/17 04:44:42;;;;;;;10.25;1.00;;;12.60;77.30;;;;;;5073955;28;20061;-68
2022/09/17 04:47:07;;;;;;;4.88;1.00;;;12.60;77.30;;;;;;5073964;28;20040;-69
2022/09/17 04:49:33;;;;;;;5.28;0.70;;;12.60;77.30;;;;;;5072969;28;20033;-69
2022/09/17 04:51:58;;;;;;;2.53;0.50;;;12.50;77.30;;;;;;5073856;28;20042;-68
2022/09/17 04:54:24;;;;;;;6.20;0.70;;;12.50;77.30;;;;;;5073947;28;20064;-68
2022/09/17 04:56:50;;;;;;;3.22;0.45;;;12.50;77.10;;;;;;5073764;28;20036;-68
2022/09/17 04:59:16;;;;;;;2.10;0.70;;;12.50;77.20;;;;;;5072745;28;20037;-68
2022/09/17 05:01:42;;;;;;;3.20;0.50;;;12.50;77.20;;;;;;5073587;28;20029;-68
2022/09/17 05:04:08;;;;;;;4.15;0.57;;;12.50;77.40;;;;;;5073653;28;20024;-68
2022/09/17 05:06:34;;;;;;;2.15;0.40;;;12.40;77.50;;;;;;5073589;28;20091;-69
2022/09/17 05:09:00;;;;;;;3.03;0.70;;;12.40;77.50;;;;;;5072333;28;20045;-69
2022/09/17 05:11:27;;;;;;;6.55;1.02;;;12.40;77.50;;;;;;5072637;28;20028;-68
2022/09/17 05:13:52;;;;;;;5.50;0.68;;;12.40;77.40;;;;;;5073514;28;20024;-69
2022/09/17 05:16:19;;;;;;;8.18;0.90;;;12.40;77.60;;;;;;5072517;28;20023;-68
2022/09/17 05:18:44;;;;;;;4.82;1.02;;;12.40;78.00;;;;;;5072584;28;20036;-69
2022/09/17 05:21:10;;;;;;;4.25;0.80;;;12.40;77.90;;;;;;5073342;28;20033;-68
2022/09/17 05:23:36;;;;;;;6.28;0.85;;;12.40;77.80;;;;;;5073366;28;20021;-68
2022/09/17 05:26:02;;;;;;;3.58;1.05;;;12.40;77.80;;;;;;5073334;28;20029;-68
2022/09/17 05:28:28;;;;;;;3.90;1.40;;;12.40;78.10;;;;;;5073243;28;20024;-68
2022/09/17 05:30:57;;;;;;;5.80;1.00;;;12.40;78.20;;;;;;5055707;28;20025;-68
2022/09/17 05:33:22;;;;;;;2.63;0.55;;;12.40;78.10;;;;;;5073372;28;20043;-68
2022/09/17 05:35:48;;;;;;;3.15;0.85;;;12.40;78.00;;;;;;5072206;28;20033;-68
2022/09/17 05:38:13;;;;;;;7.22;0.88;;;12.40;78.00;;;;;;5073181;28;20033;-68
2022/09/17 05:40:39;;;;;;;4.65;0.90;;;12.40;78.90;;;;;;5073319;28;20029;-68
2022/09/17 05:43:06;;;;;;;5.50;0.90;;;12.40;78.30;;;;;;5073077;28;20037;-68
2022/09/17 05:45:33;;;;;;;5.78;0.75;;;12.40;78.20;;;;;;5073098;28;20104;-68
2022/09/17 05:48:00;;;;;;;5.43;0.80;;;12.40;78.40;;;;;;5073124;28;20025;-69
2022/09/17 05:50:27;;;;;;;3.55;0.65;;;12.40;78.30;;;;;;5075089;28;20081;-68
2022/09/17 05:52:53;;;;;;;7.45;1.10;;;12.40;78.40;;;;;;5077228;28;20029;-68
2022/09/17 05:55:21;;;;;;;3.88;0.95;;;12.50;78.50;;;;;;5077185;28;20025;-68
2022/09/17 05:57:47;;;;;;;4.03;0.93;;;12.40;78.70;;;;;;5076219;28;20024;-68
2022/09/17 06:00:13;;;;;;;6.82;0.63;;;12.50;78.70;;;;;;5077080;28;20029;-69
2022/09/17 06:02:39;;;;;;;5.53;0.90;;;12.40;78.70;;;;;;5076969;28;20045;-68
2022/09/17 06:05:05;;;;;;;3.38;0.95;;;12.50;78.80;;;;;;5059392;28;20036;-68
2022/09/17 06:07:33;;;;;;;6.03;0.90;;;12.50;78.70;;;;;;5076968;28;20041;-68
2022/09/17 06:09:59;;;;;;;7.28;0.90;;;12.50;78.60;;;;;;5076896;28;20040;-69
2022/09/17 06:12:24;;;;;;;6.40;0.60;;;12.50;78.40;;;;;;5076874;28;20056;-69
2022/09/17 06:14:50;;;;;;;7.43;0.82;;;12.60;78.30;;;;;;5075897;28;20029;-69
2022/09/17 06:17:15;;;;;;;7.22;0.88;;;12.60;78.30;;;;;;5075847;28;20094;-69
2022/09/17 06:19:41;;;;;;;4.22;0.90;;;12.60;78.10;;;;;;5076725;28;20039;-69
2022/09/17 06:22:06;;;;;;;5.63;0.57;;;12.60;78.10;;;;;;5075665;28;20029;-69
2022/09/17 06:24:32;;;;;;;9.88;0.77;;;12.60;78.30;;;;;;5058970;28;20033;-69
2022/09/17 06:26:58;;;;;;;7.97;1.05;;;12.60;78.00;;;;;;5076611;28;20112;-69
2022/09/17 06:29:23;;;;;;;5.93;0.90;;;12.70;78.20;;;;;;5075576;28;20530;-69
2022/09/17 06:31:50;;;;;;;6.30;1.10;;;12.70;78.20;;;;;;5076516;28;20029;-68
2022/09/17 06:34:16;;;;;;;3.78;0.65;;;12.70;78.10;;;;;;5076475;28;20025;-68
2022/09/17 06:36:42;;;;;;;6.53;1.27;;;12.80;78.10;;;;;;5075498;28;20029;-68
2022/09/17 06:39:08;;;;;;;4.00;0.70;;;12.80;77.80;;;;;;5075515;28;20032;-68
2022/09/17 06:41:34;;;;;;;2.55;0.70;;;12.90;77.70;;;;;;5076250;28;20028;-68
2022/09/17 06:44:00;;;;;;;3.85;0.73;;;13.00;77.70;;;;;;5076298;28;20025;-69
2022/09/17 06:46:26;;;;;;;5.85;0.73;;;13.00;77.40;;;;;;5076287;28;20020;-69
2022/09/17 06:48:52;;;;;;;5.55;1.13;;;13.00;77.20;;;;;;5075171;28;20033;-68
2022/09/17 06:51:18;;;;;;;4.60;0.80;;;13.10;77.00;;;;;;5075135;28;20036;-68
2022/09/17 06:53:43;;;;;;;7.55;1.10;;;13.10;77.10;;;;;;5076065;28;20029;-68
2022/09/17 06:56:09;;;;;;;3.38;0.98;;;13.10;77.40;;;;;;5075101;28;20036;-68
2022/09/17 06:58:36;;;;;;;3.40;0.77;;;13.20;77.40;;;;;;5076043;28;20048;-68
2022/09/17 07:01:03;;;;;;;3.22;0.60;;;13.20;77.00;;;;;;5075576;28;20025;-68
2022/09/17 07:03:29;;;;;;;5.88;1.38;;;13.30;76.80;;;;;;5074977;28;20077;-68
2022/09/17 07:05:56;;;;;;;3.75;0.60;;;13.30;76.70;;;;;;5075876;28;20017;-68
2022/09/17 07:08:21;;;;;;;2.92;0.68;;;13.30;76.50;;;;;;5075721;28;20040;-68
2022/09/17 07:10:47;;;;;;;5.18;0.93;;;13.30;76.50;;;;;;5074847;28;20027;-68
2022/09/17 07:13:13;;;;;;;9.75;1.00;;;13.30;76.10;;;;;;5075724;28;20021;-69
2022/09/17 07:15:39;;;;;;;8.10;0.90;;;13.30;76.10;;;;;;5075719;28;20032;-68
2022/09/17 07:18:11;;;;;;;6.03;0.80;;;13.40;76.20;;;;;;5075626;28;20029;-68
2022/09/17 07:20:38;;;;;;;6.32;0.80;;;13.40;76.30;;;;;;5075642;28;20029;-69
2022/09/17 07:23:03;;;;;;;1.85;0.40;;;13.40;76.60;;;;;;5074573;28;20037;-68
2022/09/17 07:25:29;;;;;;;3.92;0.98;;;13.40;75.70;;;;;;5075520;28;20139;-68
2022/09/17 07:27:56;;;;;;;6.10;0.90;;;13.50;75.80;;;;;;5075475;28;20026;-68
2022/09/17 07:30:22;;;;;;;2.17;0.93;;;13.50;75.80;;;;;;5075466;28;20055;-68
2022/09/17 07:32:48;;;;;;;4.20;1.13;;;13.60;75.60;;;;;;5075382;28;20032;-69
2022/09/17 07:35:13;;;;;;;2.58;0.57;;;13.60;75.30;;;;;;5075215;28;20040;-68
2022/09/17 07:37:39;;;;;;;5.30;1.33;;;13.60;75.00;;;;;;5075282;28;20036;-69
2022/09/17 07:40:08;;;;;;;4.82;1.00;;;13.70;74.90;;;;;;5075218;28;20033;-69
2022/09/17 07:42:34;;;;;;;6.43;0.80;;;13.80;74.60;;;;;;5075159;28;20025;-69
2022/09/17 07:45:00;;;;;;;5.53;0.88;;;13.80;74.50;;;;;;5074135;28;20539;-69
2022/09/17 07:47:25;;;;;;;3.47;0.80;;;13.90;74.60;;;;;;5075090;28;20076;-69
2022/09/17 07:49:51;;;;;;;3.97;0.75;;;13.90;74.40;;;;;;5074068;28;20509;-69
2022/09/17 07:52:17;;;;;;;4.28;0.73;;;14.00;74.00;;;;;;5074976;28;20033;-69
2022/09/17 07:54:42;;;;;;;8.25;0.90;;;14.00;74.00;;;;;;5074920;28;20037;-68
2022/09/17 07:57:08;;;;;;;4.07;0.75;;;14.10;74.20;;;;;;5073986;28;20044;-69
2022/09/17 07:59:33;;;;;;;3.28;0.60;;;14.10;73.70;;;;;;5074888;28;20092;-69
2022/09/17 08:01:59;;;;;;;1.50;0.40;;;14.10;72.90;;;;;;5074752;28;20028;-68
2022/09/17 08:04:25;;;;;;;1.48;0.40;;;14.10;72.20;;;;;;5074732;28;20033;-69
2022/09/17 08:06:50;;;;;;;4.60;0.57;;;14.20;72.50;;;;;;5074742;28;20017;-68
2022/09/17 08:09:17;;;;;;;3.25;0.43;;;14.20;72.00;;;;;;5074551;28;20156;-69
2022/09/17 08:11:43;;;;;;;2.30;0.45;;;14.30;72.60;;;;;;5074764;28;20094;-69
2022/09/17 08:14:11;;;;;;;4.00;0.52;;;14.30;72.00;;;;;;5073827;28;20476;-68
2022/09/17 08:16:37;;;;;;;3.10;0.63;;;14.40;71.90;;;;;;5074524;28;20055;-68
2022/09/17 08:19:03;;;;;;;2.47;0.60;;;14.50;71.50;;;;;;5073449;28;20025;-68
2022/09/17 08:21:28;;;;;;;3.70;0.75;;;14.60;71.10;;;;;;5074418;28;20071;-69
2022/09/17 08:23:54;;;;;;;2.88;0.40;;;14.60;70.20;;;;;;5074390;28;20025;-69
2022/09/17 08:26:21;;;;;;;2.33;0.15;;;14.70;69.90;;;;;;5074477;28;20029;-68
2022/09/17 08:28:49;;;;;;;2.20;0.55;;;14.80;70.20;;;;;;5073219;28;20112;-68
2022/09/17 08:31:17;;;;;;;1.95;0.55;;;14.90;70.10;;;;;;5074245;28;20021;-69
2022/09/17 08:33:43;;;;;;;6.43;0.85;;;15.00;69.90;;;;;;5073182;28;20032;-68
2022/09/17 08:36:12;;;;;;;4.13;0.52;;;15.00;69.50;;;;;;5073314;28;20029;-69
2022/09/17 08:38:38;;;;;;;5.22;0.70;;;15.10;69.50;;;;;;5074142;28;20040;-69
2022/09/17 08:41:13;;;;;;;4.05;0.50;;;15.10;69.70;;;;;;5074122;28;20025;-69
2022/09/17 08:44:05;;;;;;;3.72;0.50;;;15.10;69.30;;;;;;5072992;28;20027;-69
2022/09/17 08:46:44;;;;;;;4.07;1.20;;;15.10;69.30;;;;;;5074100;28;20028;-69
2022/09/17 08:49:31;;;;;;;2.65;0.50;;;15.10;69.30;;;;;;5073922;28;20052;-69
2022/09/17 08:52:15;;;;;;;2.85;0.40;;;15.20;69.60;;;;;;5073892;28;20043;-69
2022/09/17 08:54:56;;;;;;;3.45;0.47;;;15.30;69.20;;;;;;5073046;28;20036;-69
2022/09/17 08:57:51;;;;;;;3.75;0.60;;;15.40;68.60;;;;;;5073940;28;20025;-69
2022/09/17 09:00:21;;;;;;;5.40;0.43;;;15.40;69.00;;;;;;5064505;28;20033;-69
2022/09/17 09:03:05;;;;;;;4.90;0.50;;;15.50;68.90;;;;;;5073682;28;20036;-69
2022/09/17 09:05:46;;;;;;;4.40;0.55;;;15.60;68.20;;;;;;5072715;28;20035;-69
2022/09/17 09:08:14;;;;;;;1.85;0.32;;;15.70;67.60;;;;;;5073493;28;20041;-70
2022/09/17 09:10:54;;;;;;;3.75;0.40;;;15.70;66.00;;;;;;5073589;28;20039;-69
2022/09/17 09:13:24;;;;;;;3.67;0.47;;;15.90;65.90;;;;;;5073530;28;20020;-69
2022/09/17 09:16:24;;;;;;;3.80;0.45;;;15.90;66.30;;;;;;5073601;28;20017;-69
2022/09/17 09:18:58;;;;;;;1.45;0.57;;;15.90;66.20;;;;;;5070488;28;20053;-69
2022/09/17 09:21:29;;;;;;;5.80;0.95;;;16.00;66.80;;;;;;5072353;28;20049;-69
2022/09/17 09:24:13;;;;;;;2.00;0.55;;;16.10;66.00;;;;;;5073409;28;20048;-69
2022/09/17 09:26:48;;;;;;;0.73;0.45;;;16.20;64.90;;;;;;5073518;28;20494;-69
2022/09/17 09:29:13;;;;;;;2.53;0.40;;;16.30;64.60;;;;;;5072166;28;20021;-69
2022/09/17 09:31:48;;;;;;;1.90;0.60;;;16.40;64.50;;;;;;5073286;28;20035;-68
2022/09/17 09:34:15;;;;;;;3.80;0.43;;;16.50;63.70;;;;;;5073206;28;20025;-69
2022/09/17 09:36:40;;;;;;;2.42;0.38;;;16.40;63.50;;;;;;5073228;28;20021;-68
2022/09/17 09:39:24;;;;;;;5.53;0.73;;;16.40;64.40;;;;;;5073165;28;20037;-68
2022/09/17 09:42:00;;;;;;;3.70;0.40;;;16.40;64.10;;;;;;5073260;28;20024;-68
2022/09/17 09:44:26;;;;;;;4.22;0.40;;;16.30;64.10;;;;;;5073164;28;20113;-68
2022/09/17 09:47:19;;;;;;;4.00;0.40;;;16.20;64.60;;;;;;5073107;28;20022;-68
2022/09/17 09:49:59;;;;;;;4.43;0.45;;;16.10;64.50;;;;;;5073120;28;20077;-68
2022/09/17 09:52:31;;;;;;;4.07;0.35;;;16.00;64.90;;;;;;5073042;28;20089;-68
2022/09/17 09:55:21;;;;;;;7.10;0.60;;;15.90;65.40;;;;;;5073087;28;20032;-69
2022/09/17 09:57:49;;;;;;;2.63;0.43;;;15.70;67.70;;;;;;5073024;28;20021;-70
2022/09/17 10:00:29;;;;;;;4.05;0.88;;;15.40;69.30;;;;;;5073109;28;20029;-70
2022/09/17 10:03:21;;;;;;;3.67;0.40;;;15.20;70.80;;;;;;5072891;28;20025;-70
2022/09/17 10:05:56;;;;;;;;;;;15.10;71.20;;;;;;5073378;28;20041;-69
2022/09/17 10:08:23;;;;;;;1.35;0.30;;;15.00;71.50;;;;;;5072668;28;19913;-69
2022/09/17 10:10:59;;;;;;;1.40;0.45;;;14.80;72.20;;;;;;5072935;28;20136;-69
2022/09/17 10:13:27;;;;;;;1.52;0.68;;;14.80;73.50;;;;;;5073031;28;20047;-69
2022/09/17 10:15:53;;;;;;;3.80;0.40;;;14.90;75.30;;;;;;5072860;28;20021;-69
2022/09/17 10:18:23;;;;;;;0.47;0.20;;;15.00;75.20;;;;;;5072858;28;20043;-69
2022/09/17 10:20:56;;;;;;;3.03;0.57;;;15.10;75.40;;;;;;5072810;28;20021;-69
2022/09/17 10:23:22;;;;;;;;;;;15.30;74.30;;;;;;5073210;28;20025;-69
2022/09/17 10:25:49;;;;;;;1.30;0.40;;;15.40;73.00;;;;;;5072775;28;19929;-69
2022/09/17 10:28:40;;;;;;;1.67;0.22;;;15.50;73.80;;;;;;5072659;28;20021;-70
2022/09/17 10:31:09;;;;;;;1.02;0.15;;;15.70;73.60;;;;;;5072870;28;20025;-69
2022/09/17 10:33:55;;;;;;;2.08;0.70;;;15.90;73.30;;;;;;5055305;28;20025;-69
2022/09/17 10:36:45;;;;;;;2.05;0.20;;;16.00;72.20;;;;;;5074239;28;20476;-69
2022/09/17 10:39:30;;;;;;;3.70;0.43;;;16.20;72.00;;;;;;5076544;28;20040;-69
2022/09/17 10:42:15;;;;;;;1.30;0.30;;;16.30;71.80;;;;;;5076263;28;20029;-69
2022/09/17 10:44:57;;;;;;;3.75;0.65;;;16.50;71.60;;;;;;5075405;28;20025;-69
2022/09/17 10:47:30;;;;;;;1.02;0.32;;;16.60;70.00;;;;;;5076302;28;20025;-68
2022/09/17 10:50:00;;;;;;;1.00;0.30;;;16.70;68.00;;;;;;5076249;28;20028;-69
2022/09/17 10:52:31;;;;;;;1.73;0.30;;;16.80;68.40;;;;;;5076196;28;20053;-69
2022/09/17 10:55:25;;;;;;;2.77;0.30;;;16.90;67.90;;;;;;5076224;28;20032;-68
2022/09/17 10:58:06;;;;;;;5.45;0.60;;;17.00;65.60;;;;;;5076088;28;20055;-68
2022/09/17 11:00:55;;;;;;;2.42;0.40;;;17.20;67.30;;;;;;5075988;28;20059;-68
2022/09/17 11:03:50;;;;;;;1.80;0.20;;;17.40;67.00;;;;;;5076080;28;20051;-69
2022/09/17 11:06:37;;;;;;;2.70;0.20;;;17.50;64.00;;;;;;5075934;28;20021;-69
2022/09/17 11:09:15;;;;;;;4.45;0.40;;;17.50;62.90;;;;;;5075687;28;20048;-68
2022/09/17 11:11:59;;;;;;;4.20;0.40;;;17.40;60.40;;;;;;5075762;28;20037;-69
2022/09/17 11:14:36;;;;;;;0.63;0.20;;;17.40;60.60;;;;;;5075723;28;20021;-69
2022/09/17 11:17:38;;;;;;;5.55;0.55;;;17.30;60.30;;;;;;5074652;28;20021;-68
2022/09/17 11:20:07;;;;;;;2.85;0.38;;;17.40;62.30;;;;;;5074865;28;20035;-69
2022/09/17 11:22:50;;;;;;;1.08;0.20;;;17.50;62.20;;;;;;5075513;28;20055;-69
2022/09/17 11:25:23;;;;;;;0.75;0.35;;;17.50;60.70;;;;;;5075695;28;20024;-69
2022/09/17 11:28:16;;;;;;;2.05;0.50;;;17.30;61.10;;;;;;5075581;28;20044;-69
2022/09/17 11:30:48;;;;;;;0.40;0.25;;;17.20;60.80;;;;;;5075464;28;20033;-68
2022/09/17 11:33:27;;;;;;;7.68;0.65;;;17.00;62.70;;;;;;5074437;28;20029;-69
2022/09/17 11:36:01;;;;;;;3.25;0.20;;;16.70;64.80;;;;;;5075372;28;20048;-69
2022/09/17 11:38:51;;;;;;;2.50;0.40;;;16.50;66.30;;;;;;5074370;28;20037;-69
2022/09/17 11:41:32;;;;;;;2.38;0.52;;;16.50;68.30;;;;;;5075226;28;20029;-69
2022/09/17 11:44:08;;;;;;;2.90;0.40;;;16.40;68.80;;;;;;5075387;28;20024;-69
2022/09/17 11:46:44;;;;;;;1.35;0.45;;;16.60;70.00;;;;;;5075154;28;20029;-69
2022/09/17 11:49:28;;;;;;;2.60;0.55;;;16.70;70.00;;;;;;5074488;28;20080;-69
2022/09/17 11:52:00;;;;;;;2.90;0.35;;;16.80;69.10;;;;;;5075175;28;20029;-68
2022/09/17 11:54:38;;;;;;;1.10;0.45;;;17.00;69.10;;;;;;5073957;28;20041;-69
2022/09/17 11:57:18;;;;;;;2.45;0.30;;;17.10;68.70;;;;;;5074909;28;20025;-69
2022/09/17 11:59:51;;;;;;;1.23;0.25;;;17.20;66.10;;;;;;5074939;28;20028;-69
2022/09/17 12:02:34;;;;;;;3.50;0.60;;;17.40;67.60;;;;;;5074798;28;20033;-69
2022/09/17 12:05:05;;;;;;;2.00;0.45;;;17.60;67.60;;;;;;5074877;28;20044;-69
2022/09/17 12:07:57;;;;;;;5.40;0.83;;;17.70;66.40;;;;;;5074828;28;20032;-68
2022/09/17 12:10:47;;;;;;;5.50;0.73;;;17.80;63.90;;;;;;5074806;28;20033;-68
2022/09/17 12:13:37;;;;;;;7.72;0.90;;;17.80;63.40;;;;;;5074615;28;20025;-69
2022/09/17 12:16:23;;;;;;;2.97;0.60;;;17.90;63.80;;;;;;5074788;28;20093;-68
2022/09/17 12:19:04;;;;;;;3.30;0.50;;;17.80;62.40;;;;;;5074556;28;20035;-68
2022/09/17 12:21:48;;;;;;;3.22;0.40;;;17.80;63.20;;;;;;5074556;28;20025;-68
2022/09/17 12:24:30;;;;;;;3.25;0.50;;;17.90;60.80;;;;;;5074434;28;20048;-68
2022/09/17 12:27:04;;;;;;;2.23;0.40;;;18.00;61.90;;;;;;5074406;28;20093;-68
2022/09/17 12:29:35;;;;;;;4.47;0.63;;;18.00;60.60;;;;;;5074224;28;20271;-68
2022/09/17 12:32:27;;;;;;;4.53;0.50;;;18.00;58.10;;;;;;5074316;28;20048;-68
2022/09/17 12:35:13;;;;;;;2.95;0.55;;;17.80;58.70;;;;;;5074176;28;20025;-69
2022/09/17 12:38:03;;;;;;;2.30;0.70;;;17.70;55.10;;;;;;5074337;28;20040;-69
2022/09/17 12:40:49;;;;;;;4.30;0.75;;;17.60;57.50;;;;;;5074126;28;20056;-69
2022/09/17 12:43:58;;;;;;;2.80;0.65;;;17.70;58.80;;;;;;5074184;28;20029;-69
2022/09/17 12:46:23;;;;;;;2.85;0.52;;;17.80;60.00;;;;;;5074129;28;20017;-69
2022/09/17 12:49:08;;;;;;;1.50;0.40;;;17.80;59.90;;;;;;5072901;28;20097;-69
2022/09/17 12:51:59;;;;;;;3.08;1.00;;;17.80;59.80;;;;;;5073042;28;20021;-69
2022/09/17 12:55:16;;;;;;;3.45;0.40;;;17.80;60.20;;;;;;5071026;28;20037;-70
2022/09/17 12:57:47;;;;;;;3.67;0.43;;;17.80;60.30;;;;;;5061791;28;20041;-69
2022/09/17 13:00:15;;;;;;;2.67;0.50;;;17.90;60.70;;;;;;5073483;28;20028;-69
2022/09/17 13:03:04;;;;;;;3.15;0.80;;;17.90;60.50;;;;;;5073618;28;20119;-69
2022/09/17 13:05:33;;;;;;;3.33;0.70;;;18.00;59.90;;;;;;5073723;28;20089;-69
2022/09/17 13:08:08;;;;;;;4.05;0.68;;;17.90;59.70;;;;;;5072465;28;20033;-72
2022/09/17 13:10:52;;;;;;;0.90;0.25;;;17.90;59.20;;;;;;5072576;28;20115;-69
2022/09/17 13:13:42;;;;;;;4.63;0.57;;;17.90;58.60;;;;;;5073545;28;20040;-69
2022/09/17 13:16:20;;;;;;;3.38;0.50;;;17.90;59.70;;;;;;5072521;28;20021;-69
2022/09/17 13:19:00;;;;;;;1.23;0.30;;;18.00;59.00;;;;;;5073500;28;20025;-69